Pioneer, Louisiana
Current Conditions -  °F | °C
As of 4:55 PM on Thursday 23 Oct 2014 (Local Time) from KBQP Reporting Station
Clear Clear  
Wind Chill: 64°   Ceiling: Unl
Heat Index: 64°   Visibility: 10mi
Dew Point: 52°   Wind: 3mph
Humidity: 65%   Direction: 340°NNW
Pressure: 30.13"   Gusts: NA
Location:  32.74°N, 91.43°W
Report Text: KBQP 232155Z AUTO 34003KT 10SM CLR 18/11 A3013 RMK AO2 T01750109
Loading
Personal Weather Stations






























Interactive Weather Map
Tropical Storm Tracking
New forecast layout! Learn more

10-Day Weather Forecast

Advertisements
Track Severe Weather on mobile